createdAt,value
2023-05-16T00:02:11.919Z,12.80
2023-05-16T00:04:42.948Z,12.80
2023-05-16T00:07:16.609Z,12.70
2023-05-16T00:09:47.669Z,12.70
2023-05-16T00:12:19.926Z,12.60
2023-05-16T00:14:51.600Z,12.60
2023-05-16T00:17:22.973Z,12.60
2023-05-16T00:19:58.520Z,12.50
2023-05-16T00:22:32.145Z,12.50
2023-05-16T00:25:04.418Z,12.40
2023-05-16T00:27:37.371Z,12.40
2023-05-16T00:30:10.721Z,12.30
2023-05-16T00:32:41.780Z,12.20
2023-05-16T00:35:12.865Z,12.20
2023-05-16T00:37:46.446Z,12.20
2023-05-16T00:40:20.027Z,12.20
2023-05-16T00:42:50.947Z,12.10
2023-05-16T00:45:21.843Z,12.10
2023-05-16T00:47:53.356Z,12.10
2023-05-16T00:50:24.494Z,12.10
2023-05-16T00:52:58.529Z,12.00
2023-05-16T00:55:29.535Z,12.00
2023-05-16T00:58:01.869Z,12.00
2023-05-16T01:00:32.842Z,12.00
2023-05-16T01:03:03.864Z,11.90
2023-05-16T01:05:35.450Z,11.90
2023-05-16T01:08:08.919Z,11.90
2023-05-16T01:10:50.112Z,11.90
2023-05-16T01:13:27.399Z,12.20
2023-05-16T01:16:05.978Z,11.80
2023-05-16T01:18:46.318Z,11.90
2023-05-16T01:21:28.435Z,11.80
2023-05-16T01:24:12.386Z,11.90
2023-05-16T01:26:46.685Z,11.90
2023-05-16T01:29:18.451Z,11.90
2023-05-16T01:31:49.566Z,11.70
2023-05-16T01:34:20.576Z,11.70
2023-05-16T01:37:00.046Z,11.70
2023-05-16T01:39:47.220Z,11.80
2023-05-16T01:42:27.295Z,11.80
2023-05-16T01:45:03.757Z,11.70
2023-05-16T01:47:35.946Z,11.40
2023-05-16T01:50:13.324Z,11.30
2023-05-16T01:52:48.115Z,11.10
2023-05-16T01:55:32.827Z,10.90
2023-05-16T01:58:08.102Z,11.20
2023-05-16T02:00:39.264Z,10.90
2023-05-16T02:03:11.128Z,10.70
2023-05-16T02:05:42.386Z,10.50
2023-05-16T02:08:13.353Z,10.50
2023-05-16T02:10:44.487Z,10.50
2023-05-16T02:13:17.989Z,10.60
2023-05-16T02:15:49.156Z,10.60
2023-05-16T02:18:20.158Z,10.50
2023-05-16T02:20:51.159Z,10.40
2023-05-16T02:23:22.095Z,10.40
2023-05-16T02:25:53.237Z,10.30
2023-05-16T02:28:26.711Z,10.30
2023-05-16T02:31:01.038Z,10.30
2023-05-16T02:33:32.302Z,10.30
2023-05-16T02:36:04.000Z,10.30
2023-05-16T02:38:34.875Z,10.30
2023-05-16T02:41:05.923Z,10.40
2023-05-16T02:43:39.542Z,10.40
2023-05-16T02:46:24.962Z,10.30
2023-05-16T02:48:56.563Z,10.30
2023-05-16T02:51:29.053Z,10.40
2023-05-16T02:54:01.205Z,10.50
2023-05-16T02:56:32.347Z,10.50
2023-05-16T02:59:07.089Z,10.50
2023-05-16T03:01:38.220Z,10.40
2023-05-16T03:04:09.212Z,10.30
2023-05-16T03:06:40.189Z,10.40
2023-05-16T03:09:11.172Z,10.40
2023-05-16T03:11:42.036Z,10.40
2023-05-16T03:14:15.500Z,10.50
2023-05-16T03:16:46.926Z,10.60
2023-05-16T03:19:17.980Z,10.50
2023-05-16T03:21:48.892Z,10.60
2023-05-16T03:24:21.822Z,10.60
2023-05-16T03:26:52.911Z,10.60
2023-05-16T03:29:27.143Z,10.60
2023-05-16T03:31:58.268Z,10.60
2023-05-16T03:34:29.315Z,10.50
2023-05-16T03:37:00.385Z,10.40
2023-05-16T03:39:31.272Z,10.30
2023-05-16T03:42:02.413Z,10.30
2023-05-16T03:44:35.907Z,10.20
2023-05-16T03:47:07.371Z,10.10
2023-05-16T03:49:38.974Z,10.10
2023-05-16T03:52:10.416Z,10.10
2023-05-16T03:54:41.654Z,10.10
2023-05-16T03:57:12.572Z,10.10
2023-05-16T03:59:46.169Z,10.10
2023-05-16T04:02:18.895Z,10.10
2023-05-16T04:04:50.057Z,10.10
2023-05-16T04:07:23.262Z,10.20
2023-05-16T04:09:55.035Z,10.30
2023-05-16T04:12:26.008Z,10.30
2023-05-16T04:14:59.671Z,10.30
2023-05-16T04:17:30.648Z,10.10
2023-05-16T04:20:02.159Z,10.10
2023-05-16T04:22:33.129Z,10.10
2023-05-16T04:25:04.592Z,10.00
2023-05-16T04:27:35.759Z,9.90
2023-05-16T04:30:11.428Z,9.80
2023-05-16T04:32:42.396Z,9.60
2023-05-16T04:35:16.712Z,9.60
2023-05-16T04:37:47.726Z,9.50
2023-05-16T04:40:18.971Z,9.50
2023-05-16T04:42:50.970Z,9.60
2023-05-16T04:45:24.935Z,9.70
2023-05-16T04:47:56.147Z,9.70
2023-05-16T04:50:30.018Z,9.90
2023-05-16T04:53:00.853Z,10.20
2023-05-16T04:55:31.881Z,10.60
2023-05-16T04:58:03.188Z,11.00
2023-05-16T05:00:38.616Z,11.70
2023-05-16T05:03:09.844Z,12.30
2023-05-16T05:05:41.119Z,12.80
2023-05-16T05:08:12.602Z,13.30
2023-05-16T05:10:43.552Z,13.80
2023-05-16T05:13:14.531Z,14.30
2023-05-16T05:15:52.460Z,14.60
2023-05-16T05:18:23.856Z,15.10
2023-05-16T05:20:55.541Z,15.40
2023-05-16T05:23:27.782Z,15.70
2023-05-16T05:25:58.821Z,15.70
2023-05-16T05:28:32.982Z,16.00
2023-05-16T05:31:08.309Z,16.40
2023-05-16T05:33:39.258Z,16.30
2023-05-16T05:36:10.980Z,16.30
2023-05-16T05:38:43.737Z,16.20
2023-05-16T05:41:14.928Z,16.00
2023-05-16T05:43:45.948Z,16.50
2023-05-16T05:46:19.766Z,16.20
2023-05-16T05:48:50.681Z,15.60
2023-05-16T05:51:21.997Z,15.70
2023-05-16T05:53:53.063Z,16.40
2023-05-16T05:56:24.884Z,16.60
2023-05-16T05:58:56.009Z,16.00
2023-05-16T06:01:31.554Z,15.80
2023-05-16T06:04:02.681Z,15.80
2023-05-16T06:06:34.027Z,15.70
2023-05-16T06:09:04.961Z,15.00
2023-05-16T06:11:36.116Z,15.00
2023-05-16T06:14:07.109Z,14.50
2023-05-16T06:16:40.785Z,14.30
2023-05-16T06:19:12.673Z,14.40
2023-05-16T06:21:43.611Z,14.30
2023-05-16T06:24:14.524Z,14.30
2023-05-16T06:26:46.332Z,14.10
2023-05-16T06:29:17.252Z,14.10
2023-05-16T06:31:52.997Z,14.50
2023-05-16T06:34:28.209Z,15.00
2023-05-16T06:36:59.933Z,15.10
2023-05-16T06:39:31.074Z,14.60
2023-05-16T06:42:02.022Z,14.10
2023-05-16T06:44:32.989Z,14.00
2023-05-16T06:47:07.004Z,14.30
2023-05-16T06:49:38.042Z,14.20
2023-05-16T06:52:10.041Z,13.80
2023-05-16T06:54:41.111Z,13.50
2023-05-16T06:57:12.190Z,13.20
2023-05-16T06:59:43.125Z,13.10
2023-05-16T07:02:16.945Z,13.20
2023-05-16T07:04:48.090Z,13.10
2023-05-16T07:07:18.973Z,13.50
2023-05-16T07:09:49.962Z,14.70
2023-05-16T07:12:23.957Z,14.90
2023-05-16T07:14:54.892Z,15.30
2023-05-16T07:17:28.553Z,16.50
2023-05-16T07:20:00.787Z,16.10
2023-05-16T07:22:32.677Z,16.40
2023-05-16T07:25:07.416Z,15.70
2023-05-16T07:27:38.415Z,15.10
2023-05-16T07:30:10.738Z,14.90
2023-05-16T07:32:44.690Z,14.60
2023-05-16T07:35:16.092Z,14.20
2023-05-16T07:37:47.244Z,14.10
2023-05-16T07:40:18.690Z,13.80
2023-05-16T07:42:49.677Z,14.00
2023-05-16T07:45:20.925Z,14.30
2023-05-16T07:47:54.466Z,15.20
2023-05-16T07:50:26.164Z,15.00
2023-05-16T07:52:57.101Z,14.80
2023-05-16T07:55:28.386Z,14.60
2023-05-16T07:57:59.588Z,14.50
2023-05-16T08:00:30.533Z,14.10
2023-05-16T08:03:04.240Z,14.30
2023-05-16T08:05:35.584Z,13.90
2023-05-16T08:08:06.571Z,13.80
2023-05-16T08:10:37.668Z,13.70
2023-05-16T08:13:08.665Z,13.80
2023-05-16T08:15:39.996Z,13.50
2023-05-16T08:18:16.738Z,13.50
2023-05-16T08:20:47.790Z,13.50
2023-05-16T08:23:18.815Z,13.70
2023-05-16T08:25:49.737Z,13.70
2023-05-16T08:28:20.810Z,13.80
2023-05-16T08:30:52.293Z,13.90
2023-05-16T08:33:26.128Z,14.30
2023-05-16T08:35:57.265Z,14.30
2023-05-16T08:38:28.255Z,14.30
2023-05-16T08:40:59.345Z,14.30
2023-05-16T08:43:30.635Z,14.20
2023-05-16T08:46:02.401Z,13.90
2023-05-16T08:48:39.096Z,14.00
2023-05-16T08:51:12.155Z,14.20
2023-05-16T08:53:49.086Z,14.70
2023-05-16T08:56:23.533Z,14.40
2023-05-16T08:58:55.517Z,14.40
2023-05-16T09:01:26.752Z,14.40
2023-05-16T09:04:01.149Z,14.30
2023-05-16T09:06:32.332Z,14.10
2023-05-16T09:09:04.463Z,14.20
2023-05-16T09:11:36.913Z,14.30
2023-05-16T09:14:08.477Z,14.40
2023-05-16T09:16:39.484Z,14.50
2023-05-16T09:19:17.067Z,14.70
2023-05-16T09:21:48.236Z,15.10
2023-05-16T09:24:19.185Z,14.90
2023-05-16T09:26:50.464Z,15.00
2023-05-16T09:29:22.346Z,14.90
2023-05-16T09:31:53.464Z,15.00
2023-05-16T09:34:26.963Z,15.20
2023-05-16T09:36:58.046Z,15.10
2023-05-16T09:39:30.523Z,15.00
2023-05-16T09:42:02.376Z,14.70
2023-05-16T09:44:35.041Z,14.70
2023-05-16T09:47:05.991Z,14.80
2023-05-16T09:49:40.479Z,14.60
2023-05-16T09:52:11.962Z,14.70
2023-05-16T09:54:43.154Z,14.90
2023-05-16T09:57:16.978Z,14.80
2023-05-16T09:59:48.672Z,14.80
2023-05-16T10:02:22.763Z,14.70
2023-05-16T10:04:56.481Z,14.90
2023-05-16T10:07:27.590Z,14.90
2023-05-16T10:09:59.396Z,15.00
2023-05-16T10:12:33.507Z,15.00
2023-05-16T10:15:05.890Z,15.20
2023-05-16T10:17:39.419Z,15.60
2023-05-16T10:20:17.741Z,15.80
2023-05-16T10:22:50.386Z,16.00
2023-05-16T10:25:31.823Z,16.10
2023-05-16T10:28:06.848Z,15.90
2023-05-16T10:30:38.151Z,15.70
2023-05-16T10:33:10.063Z,15.40
2023-05-16T10:35:44.426Z,15.30
2023-05-16T10:38:18.044Z,15.10
2023-05-16T10:40:50.938Z,15.30
2023-05-16T10:43:30.756Z,15.70
2023-05-16T10:46:06.693Z,15.60
2023-05-16T10:48:39.646Z,15.90
2023-05-16T10:51:40.918Z,16.30
2023-05-16T10:54:15.490Z,16.50
2023-05-16T10:56:46.687Z,16.60
2023-05-16T10:59:28.696Z,16.60
2023-05-16T11:01:59.808Z,16.90
2023-05-16T11:04:50.093Z,16.90
2023-05-16T11:07:26.014Z,16.70
2023-05-16T11:10:08.305Z,16.70
2023-05-16T11:12:56.893Z,16.70
2023-05-16T11:15:30.287Z,16.90
2023-05-16T11:18:09.603Z,17.00
2023-05-16T11:20:42.227Z,17.00
2023-05-16T11:23:29.322Z,17.00
2023-05-16T11:26:01.480Z,16.70
2023-05-16T11:28:32.565Z,16.30
2023-05-16T11:31:05.421Z,16.50
2023-05-16T11:33:37.322Z,16.40
2023-05-16T11:38:46.773Z,16.90
2023-05-16T11:41:18.289Z,17.00
2023-05-16T11:43:49.401Z,17.10
2023-05-16T11:46:20.395Z,16.70
2023-05-16T11:48:51.833Z,16.50
2023-05-16T11:51:23.262Z,16.20
2023-05-16T11:53:56.970Z,16.00
2023-05-16T11:56:28.116Z,15.90
2023-05-16T11:58:59.566Z,15.70
2023-05-16T12:01:35.447Z,15.40
2023-05-16T12:04:12.724Z,15.30
2023-05-16T12:06:45.261Z,15.10
2023-05-16T12:09:19.072Z,14.80
2023-05-16T12:11:50.358Z,14.70
2023-05-16T12:14:22.392Z,14.50
2023-05-16T12:16:55.539Z,14.50
2023-05-16T12:19:27.303Z,14.50
2023-05-16T12:21:59.090Z,14.50
2023-05-16T12:24:36.446Z,14.60
2023-05-16T12:27:08.308Z,14.70
2023-05-16T12:29:39.329Z,15.00
2023-05-16T12:32:11.573Z,15.10
2023-05-16T12:34:42.716Z,15.20
2023-05-16T12:37:14.896Z,15.20
2023-05-16T12:39:49.588Z,15.20
2023-05-16T12:42:22.124Z,15.10
2023-05-16T12:44:58.042Z,15.10
2023-05-16T12:47:39.050Z,14.80
2023-05-16T12:50:14.224Z,14.80
2023-05-16T12:52:52.737Z,14.90
2023-05-16T12:55:26.425Z,14.90
2023-05-16T12:58:00.042Z,15.00
2023-05-16T13:00:31.942Z,14.90
2023-05-16T13:03:03.348Z,15.00
2023-05-16T13:05:35.481Z,15.20
2023-05-16T13:08:07.526Z,15.40
2023-05-16T13:10:41.017Z,15.50
2023-05-16T13:13:13.671Z,15.50
2023-05-16T13:15:48.238Z,15.60
2023-05-16T13:18:19.336Z,15.50
2023-05-16T13:20:51.171Z,15.30
2023-05-16T13:23:22.138Z,15.20
2023-05-16T13:25:55.948Z,15.20
2023-05-16T13:28:26.891Z,15.20
2023-05-16T13:30:59.645Z,15.30
2023-05-16T13:33:31.569Z,15.50
2023-05-16T13:36:02.705Z,15.50
2023-05-16T13:38:33.603Z,15.70
2023-05-16T13:41:07.229Z,15.90
2023-05-16T13:43:38.155Z,16.30
2023-05-16T13:46:09.498Z,16.50
2023-05-16T13:48:40.688Z,16.60
2023-05-16T13:51:11.692Z,16.20
2023-05-16T13:53:43.179Z,16.20
2023-05-16T13:56:16.719Z,15.90
2023-05-16T13:59:02.038Z,15.80
2023-05-16T14:01:37.394Z,15.80
2023-05-16T14:04:08.725Z,16.20
2023-05-16T14:06:39.988Z,16.00
2023-05-16T14:09:14.065Z,16.20
2023-05-16T14:11:47.645Z,16.30
2023-05-16T14:14:18.546Z,16.30
2023-05-16T14:16:49.605Z,16.30
2023-05-16T14:19:20.889Z,16.20
2023-05-16T14:21:51.850Z,16.00
2023-05-16T14:24:22.764Z,16.10
2023-05-16T14:26:56.302Z,16.00
2023-05-16T14:29:27.396Z,16.10
2023-05-16T14:31:58.731Z,16.10
2023-05-16T14:34:32.900Z,16.00
2023-05-16T14:37:04.080Z,16.00
2023-05-16T14:39:34.974Z,16.40
2023-05-16T14:42:09.162Z,16.30
2023-05-16T14:44:40.205Z,16.50
2023-05-16T14:47:14.169Z,16.50
2023-05-16T14:49:45.424Z,16.40
2023-05-16T14:52:16.733Z,16.40
2023-05-16T14:54:47.873Z,16.30
2023-05-16T14:57:21.623Z,16.30
2023-05-16T14:59:55.673Z,16.30
2023-05-16T15:02:28.558Z,16.20
2023-05-16T15:04:59.827Z,16.10
2023-05-16T15:07:30.934Z,15.90
2023-05-16T15:10:02.104Z,16.00
2023-05-16T15:12:35.765Z,16.30
2023-05-16T15:15:07.593Z,16.20
2023-05-16T15:17:38.597Z,16.20
2023-05-16T15:20:11.173Z,16.00
2023-05-16T15:22:43.233Z,15.70
2023-05-16T15:25:14.408Z,16.00
2023-05-16T15:27:49.699Z,15.80
2023-05-16T15:30:21.028Z,15.70
2023-05-16T15:32:51.218Z,15.90
2023-05-16T15:35:22.273Z,15.60
2023-05-16T15:37:56.973Z,15.50
2023-05-16T15:40:28.232Z,15.60
2023-05-16T15:43:02.032Z,15.40
2023-05-16T15:45:33.121Z,15.30
2023-05-16T15:48:05.048Z,15.20
2023-05-16T15:50:36.505Z,15.00
2023-05-16T15:53:07.793Z,15.10
2023-05-16T15:55:38.985Z,15.10
2023-05-16T15:58:12.729Z,15.00
2023-05-16T16:00:45.753Z,15.00
2023-05-16T16:03:16.834Z,15.00
2023-05-16T16:05:48.423Z,15.00
2023-05-16T16:08:19.894Z,15.10
2023-05-16T16:10:51.772Z,15.40
2023-05-16T16:13:25.413Z,15.00
2023-05-16T16:15:56.527Z,14.90
2023-05-16T16:18:27.757Z,14.90
2023-05-16T16:20:58.752Z,15.00
2023-05-16T16:23:29.891Z,15.10
2023-05-16T16:26:01.178Z,15.10
2023-05-16T16:28:34.926Z,15.20
2023-05-16T16:31:05.934Z,15.20
2023-05-16T16:33:36.888Z,15.20
2023-05-16T16:36:08.552Z,15.00
2023-05-16T16:38:39.521Z,15.00
2023-05-16T16:41:10.508Z,15.00
2023-05-16T16:43:44.070Z,15.00
2023-05-16T16:46:15.102Z,15.00
2023-05-16T16:48:46.384Z,15.00
2023-05-16T16:51:17.331Z,14.90
2023-05-16T16:53:48.382Z,14.80
2023-05-16T16:56:19.828Z,14.70
2023-05-16T16:58:53.439Z,14.50
2023-05-16T17:01:24.509Z,14.50
2023-05-16T17:03:55.953Z,14.40
2023-05-16T17:06:26.963Z,14.20
2023-05-16T17:09:02.487Z,14.10
2023-05-16T17:11:36.374Z,14.00
2023-05-16T17:14:10.924Z,13.90
2023-05-16T17:16:41.933Z,13.90
2023-05-16T17:19:13.564Z,13.90
2023-05-16T17:21:44.674Z,13.80
2023-05-16T17:24:15.702Z,13.70
2023-05-16T17:26:47.007Z,13.60
2023-05-16T17:29:20.708Z,13.60
2023-05-16T17:31:51.581Z,13.70
2023-05-16T17:34:23.421Z,13.80
2023-05-16T17:36:54.372Z,13.90
2023-05-16T17:39:27.552Z,13.90
2023-05-16T17:41:59.349Z,13.90
2023-05-16T17:44:32.871Z,14.00
2023-05-16T17:47:04.160Z,13.90
2023-05-16T17:49:35.518Z,13.70
2023-05-16T17:52:07.274Z,13.70
2023-05-16T17:54:38.304Z,13.60
2023-05-16T17:57:09.489Z,13.60
2023-05-16T17:59:43.284Z,13.60
2023-05-16T18:02:16.434Z,13.50
2023-05-16T18:04:48.345Z,13.50
2023-05-16T18:07:19.435Z,13.40
2023-05-16T18:09:50.465Z,13.40
2023-05-16T18:12:24.233Z,13.40
2023-05-16T18:14:57.780Z,13.40
2023-05-16T18:17:28.899Z,13.40
2023-05-16T18:20:00.283Z,13.30
2023-05-16T18:22:31.638Z,13.30
2023-05-16T18:25:02.617Z,13.30
2023-05-16T18:27:33.867Z,13.80
2023-05-16T18:30:09.068Z,12.90
2023-05-16T18:32:40.180Z,13.20
2023-05-16T18:35:13.296Z,13.20
2023-05-16T18:37:44.732Z,13.20
2023-05-16T18:40:18.119Z,13.10
2023-05-16T18:42:49.159Z,13.10
2023-05-16T18:45:23.174Z,13.00
2023-05-16T18:47:54.219Z,13.00
2023-05-16T18:50:25.501Z,12.90
2023-05-16T18:52:57.740Z,12.90
2023-05-16T18:55:31.939Z,12.80
2023-05-16T18:58:02.874Z,12.80
2023-05-16T19:00:36.608Z,12.80
2023-05-16T19:03:10.000Z,12.80
2023-05-16T19:05:41.454Z,12.80
2023-05-16T19:08:12.618Z,12.80
2023-05-16T19:10:45.859Z,12.80
2023-05-16T19:13:19.695Z,13.20
2023-05-16T19:15:53.845Z,12.70
2023-05-16T19:18:25.133Z,13.30
2023-05-16T19:20:56.307Z,12.80
2023-05-16T19:23:27.217Z,12.50
2023-05-16T19:25:58.194Z,12.80
2023-05-16T19:28:29.784Z,12.80
2023-05-16T19:31:03.366Z,12.90
2023-05-16T19:33:34.452Z,12.80
2023-05-16T19:36:08.000Z,12.80
2023-05-16T19:38:39.061Z,12.80
2023-05-16T19:41:10.156Z,12.90
2023-05-16T19:43:41.072Z,12.90
2023-05-16T19:46:15.382Z,12.80
2023-05-16T19:48:46.563Z,12.80
2023-05-16T19:51:23.777Z,12.80
2023-05-16T19:54:01.144Z,12.80
2023-05-16T19:56:32.123Z,12.90
2023-05-16T19:59:03.011Z,12.80
2023-05-16T20:01:36.536Z,12.90
2023-05-16T20:04:08.128Z,12.80
2023-05-16T20:06:39.147Z,12.80
2023-05-16T20:09:11.314Z,12.80
2023-05-16T20:11:42.276Z,12.80
2023-05-16T20:14:13.261Z,12.80
2023-05-16T20:16:46.787Z,12.70
2023-05-16T20:19:19.269Z,12.70
2023-05-16T20:21:50.425Z,12.60
2023-05-16T20:24:24.545Z,12.70
2023-05-16T20:26:55.820Z,12.70
2023-05-16T20:29:26.953Z,12.70
2023-05-16T20:32:00.674Z,12.90
2023-05-16T20:34:31.592Z,12.60
2023-05-16T20:37:03.070Z,12.50
2023-05-16T20:39:35.106Z,12.40
2023-05-16T20:42:13.880Z,12.30
2023-05-16T20:44:44.986Z,12.30
2023-05-16T20:47:20.544Z,12.20
2023-05-16T20:49:51.682Z,12.30
2023-05-16T20:52:23.977Z,12.20
2023-05-16T20:54:55.123Z,12.20
2023-05-16T20:57:26.032Z,12.10
2023-05-16T20:59:56.985Z,12.10
2023-05-16T21:02:31.011Z,12.10
2023-05-16T21:05:10.175Z,12.10
2023-05-16T21:07:51.057Z,12.00
2023-05-16T21:10:22.192Z,12.00
2023-05-16T21:12:53.129Z,12.00
2023-05-16T21:15:24.304Z,12.00
2023-05-16T21:17:58.005Z,12.10
2023-05-16T21:20:30.310Z,12.00
2023-05-16T21:23:03.764Z,12.00
2023-05-16T21:25:34.707Z,12.10
2023-05-16T21:28:05.919Z,12.10
2023-05-16T21:30:36.913Z,12.10
2023-05-16T21:33:10.574Z,12.10
2023-05-16T21:35:41.772Z,12.10
2023-05-16T21:38:13.028Z,12.00
2023-05-16T21:40:44.542Z,12.00
2023-05-16T21:43:15.771Z,12.00
2023-05-16T21:45:47.165Z,12.00
2023-05-16T21:48:21.069Z,11.90
2023-05-16T21:50:52.126Z,11.80
2023-05-16T21:53:24.729Z,11.70
2023-05-16T21:55:55.681Z,11.70
2023-05-16T21:58:26.827Z,11.70
2023-05-16T22:00:57.840Z,11.70
2023-05-16T22:03:31.450Z,11.70
2023-05-16T22:06:02.538Z,11.60
2023-05-16T22:08:33.493Z,11.50
2023-05-16T22:11:04.525Z,11.50
2023-05-16T22:13:35.451Z,11.50
2023-05-16T22:16:06.500Z,11.50
2023-05-16T22:18:40.179Z,11.40
2023-05-16T22:21:11.466Z,11.30
2023-05-16T22:23:42.462Z,11.30
2023-05-16T22:26:13.564Z,11.30
2023-05-16T22:28:44.493Z,11.30
2023-05-16T22:31:15.476Z,11.20
2023-05-16T22:33:49.063Z,11.10
2023-05-16T22:36:19.980Z,11.10
2023-05-16T22:38:50.959Z,11.00
2023-05-16T22:41:21.889Z,11.00
2023-05-16T22:43:52.997Z,11.00
2023-05-16T22:46:23.925Z,10.90
2023-05-16T22:48:57.569Z,10.90
2023-05-16T22:51:28.768Z,10.90
2023-05-16T22:53:59.853Z,10.80
2023-05-16T22:56:30.867Z,11.00
2023-05-16T22:59:01.945Z,10.70
2023-05-16T23:01:32.905Z,10.70
2023-05-16T23:04:06.502Z,10.60
2023-05-16T23:06:37.665Z,10.60
2023-05-16T23:09:08.661Z,10.60
2023-05-16T23:11:39.686Z,10.60
2023-05-16T23:14:10.755Z,10.60
2023-05-16T23:16:41.754Z,10.90
2023-05-16T23:19:15.351Z,10.50
2023-05-16T23:21:46.412Z,10.50
2023-05-16T23:24:17.380Z,10.50
2023-05-16T23:26:48.313Z,10.50
2023-05-16T23:29:19.459Z,10.40
2023-05-16T23:31:50.404Z,10.40
2023-05-16T23:34:23.934Z,10.30
2023-05-16T23:36:54.926Z,10.30
2023-05-16T23:39:25.881Z,10.20
2023-05-16T23:41:56.955Z,10.20
2023-05-16T23:44:27.852Z,10.10
2023-05-16T23:46:58.785Z,10.10
2023-05-16T23:49:32.298Z,10.00
2023-05-16T23:52:05.926Z,10.00
2023-05-16T23:54:37.468Z,10.00
2023-05-16T23:57:08.908Z,9.90
2023-05-16T23:59:39.964Z,9.90
